sensor_id;sensor_type;location;lat;lon;timestamp;P1;durP1;ratioP1;P2;durP2;ratioP2
71464;SDS011;59274;49.874;9.154;2024-02-16T00:00:04;10.87;;;3.80;;
71464;SDS011;59274;49.874;9.154;2024-02-16T00:02:30;9.68;;;3.88;;
71464;SDS011;59274;49.874;9.154;2024-02-16T00:04:57;9.05;;;4.00;;
71464;SDS011;59274;49.874;9.154;2024-02-16T00:07:23;10.52;;;3.53;;
71464;SDS011;59274;49.874;9.154;2024-02-16T00:09:49;9.93;;;4.27;;
71464;SDS011;59274;49.874;9.154;2024-02-16T00:12:14;9.07;;;3.90;;
71464;SDS011;59274;49.874;9.154;2024-02-16T00:14:40;8.95;;;4.22;;
71464;SDS011;59274;49.874;9.154;2024-02-16T00:17:05;9.90;;;4.20;;
71464;SDS011;59274;49.874;9.154;2024-02-16T00:19:32;7.60;;;4.20;;
71464;SDS011;59274;49.874;9.154;2024-02-16T00:21:57;8.67;;;4.43;;
71464;SDS011;59274;49.874;9.154;2024-02-16T00:24:23;9.90;;;4.30;;
71464;SDS011;59274;49.874;9.154;2024-02-16T00:26:48;9.32;;;4.00;;
71464;SDS011;59274;49.874;9.154;2024-02-16T00:29:14;9.30;;;3.83;;
71464;SDS011;59274;49.874;9.154;2024-02-16T00:31:40;11.27;;;4.18;;
71464;SDS011;59274;49.874;9.154;2024-02-16T00:34:05;9.50;;;4.20;;
71464;SDS011;59274;49.874;9.154;2024-02-16T00:36:31;8.10;;;3.50;;
71464;SDS011;59274;49.874;9.154;2024-02-16T00:38:59;8.30;;;3.72;;
71464;SDS011;59274;49.874;9.154;2024-02-16T00:41:25;7.70;;;3.53;;
71464;SDS011;59274;49.874;9.154;2024-02-16T00:43:51;10.30;;;4.20;;
71464;SDS011;59274;49.874;9.154;2024-02-16T00:46:19;8.07;;;3.90;;
71464;SDS011;59274;49.874;9.154;2024-02-16T00:48:47;10.70;;;4.60;;
71464;SDS011;59274;49.874;9.154;2024-02-16T00:51:14;10.43;;;4.10;;
71464;SDS011;59274;49.874;9.154;2024-02-16T00:53:39;9.40;;;4.00;;
71464;SDS011;59274;49.874;9.154;2024-02-16T00:56:05;10.40;;;4.10;;
71464;SDS011;59274;49.874;9.154;2024-02-16T00:58:32;9.60;;;4.63;;
71464;SDS011;59274;49.874;9.154;2024-02-16T01:00:57;9.93;;;4.20;;
71464;SDS011;59274;49.874;9.154;2024-02-16T01:03:23;9.00;;;4.00;;
71464;SDS011;59274;49.874;9.154;2024-02-16T01:05:48;8.73;;;3.77;;
71464;SDS011;59274;49.874;9.154;2024-02-16T01:08:14;10.07;;;3.53;;
71464;SDS011;59274;49.874;9.154;2024-02-16T01:10:39;11.07;;;4.13;;
71464;SDS011;59274;49.874;9.154;2024-02-16T01:13:05;8.90;;;3.63;;
71464;SDS011;59274;49.874;9.154;2024-02-16T01:15:31;8.85;;;3.63;;
71464;SDS011;59274;49.874;9.154;2024-02-16T01:17:56;8.63;;;3.60;;
71464;SDS011;59274;49.874;9.154;2024-02-16T01:20:22;9.83;;;3.80;;
71464;SDS011;59274;49.874;9.154;2024-02-16T01:22:47;9.70;;;4.00;;
71464;SDS011;59274;49.874;9.154;2024-02-16T01:25:13;9.37;;;3.80;;
71464;SDS011;59274;49.874;9.154;2024-02-16T01:27:38;9.73;;;4.33;;
71464;SDS011;59274;49.874;9.154;2024-02-16T01:30:06;8.20;;;4.07;;
71464;SDS011;59274;49.874;9.154;2024-02-16T01:32:32;7.55;;;3.50;;
71464;SDS011;59274;49.874;9.154;2024-02-16T01:34:57;7.70;;;3.40;;
71464;SDS011;59274;49.874;9.154;2024-02-16T01:37:23;8.93;;;3.63;;
71464;SDS011;59274;49.874;9.154;2024-02-16T01:39:48;7.53;;;3.22;;
71464;SDS011;59274;49.874;9.154;2024-02-16T01:42:14;7.10;;;3.00;;
71464;SDS011;59274;49.874;9.154;2024-02-16T01:44:45;6.20;;;2.95;;
71464;SDS011;59274;49.874;9.154;2024-02-16T01:47:11;9.10;;;3.00;;
71464;SDS011;59274;49.874;9.154;2024-02-16T01:49:37;8.10;;;3.40;;
71464;SDS011;59274;49.874;9.154;2024-02-16T01:52:03;7.70;;;3.55;;
71464;SDS011;59274;49.874;9.154;2024-02-16T01:54:29;8.70;;;3.50;;
71464;SDS011;59274;49.874;9.154;2024-02-16T01:56:55;9.57;;;3.60;;
71464;SDS011;59274;49.874;9.154;2024-02-16T01:59:23;7.75;;;3.15;;
71464;SDS011;59274;49.874;9.154;2024-02-16T02:01:50;8.90;;;3.78;;
71464;SDS011;59274;49.874;9.154;2024-02-16T02:04:16;7.93;;;3.63;;
71464;SDS011;59274;49.874;9.154;2024-02-16T02:06:42;7.70;;;3.80;;
71464;SDS011;59274;49.874;9.154;2024-02-16T02:09:07;9.23;;;4.17;;
71464;SDS011;59274;49.874;9.154;2024-02-16T02:11:34;11.85;;;4.30;;
71464;SDS011;59274;49.874;9.154;2024-02-16T02:14:00;10.82;;;4.10;;
71464;SDS011;59274;49.874;9.154;2024-02-16T02:16:25;9.53;;;4.27;;
71464;SDS011;59274;49.874;9.154;2024-02-16T02:18:52;11.82;;;4.38;;
71464;SDS011;59274;49.874;9.154;2024-02-16T02:21:17;10.70;;;4.15;;
71464;SDS011;59274;49.874;9.154;2024-02-16T02:23:43;6.20;;;3.00;;
71464;SDS011;59274;49.874;9.154;2024-02-16T02:26:09;8.85;;;3.50;;
71464;SDS011;59274;49.874;9.154;2024-02-16T02:28:34;8.37;;;3.67;;
71464;SDS011;59274;49.874;9.154;2024-02-16T02:31:00;9.23;;;3.53;;
71464;SDS011;59274;49.874;9.154;2024-02-16T02:33:25;8.73;;;3.63;;
71464;SDS011;59274;49.874;9.154;2024-02-16T02:35:51;11.90;;;4.03;;
71464;SDS011;59274;49.874;9.154;2024-02-16T02:38:17;10.30;;;4.10;;
71464;SDS011;59274;49.874;9.154;2024-02-16T02:40:42;10.45;;;4.03;;
71464;SDS011;59274;49.874;9.154;2024-02-16T02:43:07;10.40;;;4.20;;
71464;SDS011;59274;49.874;9.154;2024-02-16T02:45:33;10.00;;;4.50;;
71464;SDS011;59274;49.874;9.154;2024-02-16T02:47:59;10.80;;;4.80;;
71464;SDS011;59274;49.874;9.154;2024-02-16T02:50:25;9.52;;;4.25;;
71464;SDS011;59274;49.874;9.154;2024-02-16T02:52:52;10.15;;;4.43;;
71464;SDS011;59274;49.874;9.154;2024-02-16T02:55:17;9.23;;;3.90;;
71464;SDS011;59274;49.874;9.154;2024-02-16T02:57:43;9.27;;;4.40;;
71464;SDS011;59274;49.874;9.154;2024-02-16T03:00:08;11.53;;;4.40;;
71464;SDS011;59274;49.874;9.154;2024-02-16T03:02:37;8.45;;;4.15;;
71464;SDS011;59274;49.874;9.154;2024-02-16T03:05:04;12.52;;;3.80;;
71464;SDS011;59274;49.874;9.154;2024-02-16T03:07:33;7.53;;;3.42;;
71464;SDS011;59274;49.874;9.154;2024-02-16T03:09:59;7.77;;;3.30;;
71464;SDS011;59274;49.874;9.154;2024-02-16T03:12:24;8.07;;;3.28;;
71464;SDS011;59274;49.874;9.154;2024-02-16T03:14:50;9.47;;;3.67;;
71464;SDS011;59274;49.874;9.154;2024-02-16T03:17:15;10.90;;;4.20;;
71464;SDS011;59274;49.874;9.154;2024-02-16T03:19:41;11.02;;;4.80;;
71464;SDS011;59274;49.874;9.154;2024-02-16T03:22:06;9.23;;;4.00;;
71464;SDS011;59274;49.874;9.154;2024-02-16T03:24:32;8.20;;;3.60;;
71464;SDS011;59274;49.874;9.154;2024-02-16T03:26:57;9.88;;;3.60;;
71464;SDS011;59274;49.874;9.154;2024-02-16T03:29:23;9.30;;;3.87;;
71464;SDS011;59274;49.874;9.154;2024-02-16T03:31:49;10.03;;;3.90;;
71464;SDS011;59274;49.874;9.154;2024-02-16T03:34:15;9.27;;;4.47;;
71464;SDS011;59274;49.874;9.154;2024-02-16T03:36:40;13.27;;;5.80;;
71464;SDS011;59274;49.874;9.154;2024-02-16T03:39:06;11.55;;;5.28;;
71464;SDS011;59274;49.874;9.154;2024-02-16T03:41:33;14.63;;;5.73;;
71464;SDS011;59274;49.874;9.154;2024-02-16T03:43:59;10.15;;;4.50;;
71464;SDS011;59274;49.874;9.154;2024-02-16T03:46:25;9.23;;;4.72;;
71464;SDS011;59274;49.874;9.154;2024-02-16T03:48:51;13.57;;;5.03;;
71464;SDS011;59274;49.874;9.154;2024-02-16T03:51:17;9.38;;;4.22;;
71464;SDS011;59274;49.874;9.154;2024-02-16T03:53:42;9.73;;;3.93;;
71464;SDS011;59274;49.874;9.154;2024-02-16T03:56:10;9.15;;;3.60;;
71464;SDS011;59274;49.874;9.154;2024-02-16T03:58:37;11.43;;;4.55;;
71464;SDS011;59274;49.874;9.154;2024-02-16T04:01:03;11.57;;;4.27;;
71464;SDS011;59274;49.874;9.154;2024-02-16T04:03:29;8.27;;;3.90;;
71464;SDS011;59274;49.874;9.154;2024-02-16T04:05:54;8.67;;;3.80;;
71464;SDS011;59274;49.874;9.154;2024-02-16T04:08:19;9.05;;;3.70;;
71464;SDS011;59274;49.874;9.154;2024-02-16T04:10:45;8.90;;;4.47;;
71464;SDS011;59274;49.874;9.154;2024-02-16T04:13:11;9.63;;;4.47;;
71464;SDS011;59274;49.874;9.154;2024-02-16T04:15:36;10.77;;;4.28;;
71464;SDS011;59274;49.874;9.154;2024-02-16T04:18:02;10.53;;;3.67;;
71464;SDS011;59274;49.874;9.154;2024-02-16T04:20:27;11.33;;;4.83;;
71464;SDS011;59274;49.874;9.154;2024-02-16T04:22:53;9.47;;;4.40;;
71464;SDS011;59274;49.874;9.154;2024-02-16T04:25:18;10.73;;;4.70;;
71464;SDS011;59274;49.874;9.154;2024-02-16T04:27:44;11.60;;;5.00;;
71464;SDS011;59274;49.874;9.154;2024-02-16T04:30:09;10.23;;;4.97;;
71464;SDS011;59274;49.874;9.154;2024-02-16T04:32:35;11.30;;;5.00;;
71464;SDS011;59274;49.874;9.154;2024-02-16T04:35:00;10.10;;;5.10;;
71464;SDS011;59274;49.874;9.154;2024-02-16T04:37:25;13.87;;;5.43;;
71464;SDS011;59274;49.874;9.154;2024-02-16T04:39:51;12.97;;;5.27;;
71464;SDS011;59274;49.874;9.154;2024-02-16T04:42:17;14.25;;;5.65;;
71464;SDS011;59274;49.874;9.154;2024-02-16T04:44:42;13.17;;;5.40;;
71464;SDS011;59274;49.874;9.154;2024-02-16T04:47:08;10.30;;;4.40;;
71464;SDS011;59274;49.874;9.154;2024-02-16T04:49:34;8.68;;;3.80;;
71464;SDS011;59274;49.874;9.154;2024-02-16T04:52:00;9.50;;;4.45;;
71464;SDS011;59274;49.874;9.154;2024-02-16T04:54:25;12.70;;;4.27;;
71464;SDS011;59274;49.874;9.154;2024-02-16T04:56:51;10.43;;;4.47;;
71464;SDS011;59274;49.874;9.154;2024-02-16T04:59:17;11.13;;;5.47;;
71464;SDS011;59274;49.874;9.154;2024-02-16T05:01:43;10.43;;;5.00;;
71464;SDS011;59274;49.874;9.154;2024-02-16T05:04:12;10.57;;;5.15;;
71464;SDS011;59274;49.874;9.154;2024-02-16T05:06:38;10.77;;;4.35;;
71464;SDS011;59274;49.874;9.154;2024-02-16T05:09:05;9.77;;;4.30;;
71464;SDS011;59274;49.874;9.154;2024-02-16T05:11:33;9.47;;;4.20;;
71464;SDS011;59274;49.874;9.154;2024-02-16T05:13:59;8.45;;;4.13;;
71464;SDS011;59274;49.874;9.154;2024-02-16T05:16:25;8.53;;;3.63;;
71464;SDS011;59274;49.874;9.154;2024-02-16T05:18:51;8.07;;;3.38;;
71464;SDS011;59274;49.874;9.154;2024-02-16T05:21:16;7.10;;;3.40;;
71464;SDS011;59274;49.874;9.154;2024-02-16T05:23:42;8.38;;;3.50;;
71464;SDS011;59274;49.874;9.154;2024-02-16T05:26:07;7.37;;;3.00;;
71464;SDS011;59274;49.874;9.154;2024-02-16T05:28:32;8.50;;;3.30;;
71464;SDS011;59274;49.874;9.154;2024-02-16T05:31:00;7.57;;;3.17;;
71464;SDS011;59274;49.874;9.154;2024-02-16T05:33:39;8.68;;;3.10;;
71464;SDS011;59274;49.874;9.154;2024-02-16T05:36:05;9.47;;;3.27;;
71464;SDS011;59274;49.874;9.154;2024-02-16T05:38:32;6.70;;;2.85;;
71464;SDS011;59274;49.874;9.154;2024-02-16T05:41:00;8.60;;;3.27;;
71464;SDS011;59274;49.874;9.154;2024-02-16T05:43:25;6.50;;;3.05;;
71464;SDS011;59274;49.874;9.154;2024-02-16T05:45:51;7.60;;;3.17;;
71464;SDS011;59274;49.874;9.154;2024-02-16T05:48:16;7.78;;;2.78;;
71464;SDS011;59274;49.874;9.154;2024-02-16T05:50:42;6.63;;;3.13;;
71464;SDS011;59274;49.874;9.154;2024-02-16T05:53:08;10.25;;;4.28;;
71464;SDS011;59274;49.874;9.154;2024-02-16T05:55:36;13.80;;;5.43;;
71464;SDS011;59274;49.874;9.154;2024-02-16T05:58:02;14.35;;;5.95;;
71464;SDS011;59274;49.874;9.154;2024-02-16T06:00:30;9.20;;;4.30;;
71464;SDS011;59274;49.874;9.154;2024-02-16T06:02:58;9.50;;;3.70;;
71464;SDS011;59274;49.874;9.154;2024-02-16T06:05:23;12.83;;;4.37;;
71464;SDS011;59274;49.874;9.154;2024-02-16T06:07:48;10.87;;;4.77;;
71464;SDS011;59274;49.874;9.154;2024-02-16T06:10:14;9.48;;;4.45;;
71464;SDS011;59274;49.874;9.154;2024-02-16T06:12:39;10.32;;;5.13;;
71464;SDS011;59274;49.874;9.154;2024-02-16T06:15:05;14.27;;;5.63;;
71464;SDS011;59274;49.874;9.154;2024-02-16T06:17:31;11.73;;;5.72;;
71464;SDS011;59274;49.874;9.154;2024-02-16T06:19:56;13.00;;;6.20;;
71464;SDS011;59274;49.874;9.154;2024-02-16T06:22:22;11.23;;;5.33;;
71464;SDS011;59274;49.874;9.154;2024-02-16T06:24:47;13.05;;;5.88;;
71464;SDS011;59274;49.874;9.154;2024-02-16T06:27:13;10.87;;;4.90;;
71464;SDS011;59274;49.874;9.154;2024-02-16T06:29:38;11.50;;;4.83;;
71464;SDS011;59274;49.874;9.154;2024-02-16T06:32:04;9.80;;;4.70;;
71464;SDS011;59274;49.874;9.154;2024-02-16T06:34:30;9.30;;;4.97;;
71464;SDS011;59274;49.874;9.154;2024-02-16T06:36:56;8.48;;;4.78;;
71464;SDS011;59274;49.874;9.154;2024-02-16T06:39:22;10.55;;;4.25;;
71464;SDS011;59274;49.874;9.154;2024-02-16T06:41:47;11.33;;;4.47;;
71464;SDS011;59274;49.874;9.154;2024-02-16T06:44:14;12.15;;;4.88;;
71464;SDS011;59274;49.874;9.154;2024-02-16T06:46:40;11.37;;;4.80;;
71464;SDS011;59274;49.874;9.154;2024-02-16T06:49:06;10.77;;;5.32;;
71464;SDS011;59274;49.874;9.154;2024-02-16T06:51:31;11.82;;;6.03;;
71464;SDS011;59274;49.874;9.154;2024-02-16T06:53:57;11.60;;;5.63;;
71464;SDS011;59274;49.874;9.154;2024-02-16T06:56:22;11.93;;;5.60;;
71464;SDS011;59274;49.874;9.154;2024-02-16T06:58:49;10.68;;;4.65;;
71464;SDS011;59274;49.874;9.154;2024-02-16T07:01:14;13.13;;;5.03;;
71464;SDS011;59274;49.874;9.154;2024-02-16T07:03:41;8.88;;;4.28;;
71464;SDS011;59274;49.874;9.154;2024-02-16T07:06:08;11.35;;;4.38;;
71464;SDS011;59274;49.874;9.154;2024-02-16T07:08:38;8.80;;;4.23;;
71464;SDS011;59274;49.874;9.154;2024-02-16T07:11:04;10.80;;;3.92;;
71464;SDS011;59274;49.874;9.154;2024-02-16T07:13:31;8.93;;;4.07;;
71464;SDS011;59274;49.874;9.154;2024-02-16T07:15:57;11.50;;;4.60;;
71464;SDS011;59274;49.874;9.154;2024-02-16T07:18:23;9.90;;;4.50;;
71464;SDS011;59274;49.874;9.154;2024-02-16T07:20:48;9.17;;;4.57;;
71464;SDS011;59274;49.874;9.154;2024-02-16T07:23:13;9.68;;;3.97;;
71464;SDS011;59274;49.874;9.154;2024-02-16T07:25:40;9.33;;;4.00;;
71464;SDS011;59274;49.874;9.154;2024-02-16T07:28:06;7.88;;;4.10;;
71464;SDS011;59274;49.874;9.154;2024-02-16T07:30:33;8.55;;;4.30;;
71464;SDS011;59274;49.874;9.154;2024-02-16T07:32:59;11.60;;;4.78;;
71464;SDS011;59274;49.874;9.154;2024-02-16T07:35:24;11.20;;;4.70;;
71464;SDS011;59274;49.874;9.154;2024-02-16T07:37:50;10.32;;;4.45;;
71464;SDS011;59274;49.874;9.154;2024-02-16T07:40:21;8.20;;;4.45;;
71464;SDS011;59274;49.874;9.154;2024-02-16T07:42:47;10.90;;;4.97;;
71464;SDS011;59274;49.874;9.154;2024-02-16T07:45:12;10.98;;;4.40;;
71464;SDS011;59274;49.874;9.154;2024-02-16T07:47:40;9.10;;;3.77;;
71464;SDS011;59274;49.874;9.154;2024-02-16T07:50:08;7.70;;;3.78;;
71464;SDS011;59274;49.874;9.154;2024-02-16T07:52:34;9.40;;;4.00;;
71464;SDS011;59274;49.874;9.154;2024-02-16T07:55:00;8.35;;;3.70;;
71464;SDS011;59274;49.874;9.154;2024-02-16T07:57:26;9.02;;;4.15;;
71464;SDS011;59274;49.874;9.154;2024-02-16T07:59:52;9.10;;;3.97;;
71464;SDS011;59274;49.874;9.154;2024-02-16T08:02:17;7.80;;;3.67;;
71464;SDS011;59274;49.874;9.154;2024-02-16T08:04:46;7.20;;;3.20;;
71464;SDS011;59274;49.874;9.154;2024-02-16T08:07:12;8.73;;;3.43;;
71464;SDS011;59274;49.874;9.154;2024-02-16T08:09:37;7.18;;;3.70;;
71464;SDS011;59274;49.874;9.154;2024-02-16T08:12:03;7.50;;;3.63;;
71464;SDS011;59274;49.874;9.154;2024-02-16T08:14:31;8.55;;;3.83;;
71464;SDS011;59274;49.874;9.154;2024-02-16T08:16:58;13.60;;;4.35;;
71464;SDS011;59274;49.874;9.154;2024-02-16T08:19:23;13.37;;;4.80;;
71464;SDS011;59274;49.874;9.154;2024-02-16T08:21:57;11.00;;;4.65;;
71464;SDS011;59274;49.874;9.154;2024-02-16T08:24:23;9.50;;;4.50;;
71464;SDS011;59274;49.874;9.154;2024-02-16T08:26:48;13.23;;;5.27;;
71464;SDS011;59274;49.874;9.154;2024-02-16T08:29:14;11.50;;;5.30;;
71464;SDS011;59274;49.874;9.154;2024-02-16T08:31:39;10.95;;;4.95;;
71464;SDS011;59274;49.874;9.154;2024-02-16T08:34:05;11.90;;;5.33;;
71464;SDS011;59274;49.874;9.154;2024-02-16T08:36:32;13.15;;;5.43;;
71464;SDS011;59274;49.874;9.154;2024-02-16T08:38:59;11.43;;;5.17;;
71464;SDS011;59274;49.874;9.154;2024-02-16T08:41:24;11.65;;;5.00;;
71464;SDS011;59274;49.874;9.154;2024-02-16T08:43:50;10.30;;;5.07;;
71464;SDS011;59274;49.874;9.154;2024-02-16T08:46:15;13.57;;;4.67;;
71464;SDS011;59274;49.874;9.154;2024-02-16T08:48:41;13.60;;;5.00;;
71464;SDS011;59274;49.874;9.154;2024-02-16T08:51:06;9.37;;;4.70;;
71464;SDS011;59274;49.874;9.154;2024-02-16T08:53:32;14.13;;;5.00;;
71464;SDS011;59274;49.874;9.154;2024-02-16T08:55:57;12.55;;;4.97;;
71464;SDS011;59274;49.874;9.154;2024-02-16T08:58:23;10.97;;;4.80;;
71464;SDS011;59274;49.874;9.154;2024-02-16T09:00:48;11.43;;;5.27;;
71464;SDS011;59274;49.874;9.154;2024-02-16T09:03:15;9.07;;;4.68;;
71464;SDS011;59274;49.874;9.154;2024-02-16T09:05:41;10.00;;;5.60;;
71464;SDS011;59274;49.874;9.154;2024-02-16T09:08:08;9.45;;;4.85;;
71464;SDS011;59274;49.874;9.154;2024-02-16T09:10:34;11.90;;;5.50;;
71464;SDS011;59274;49.874;9.154;2024-02-16T09:13:00;9.95;;;4.72;;
71464;SDS011;59274;49.874;9.154;2024-02-16T09:15:26;12.50;;;5.10;;
71464;SDS011;59274;49.874;9.154;2024-02-16T09:17:51;10.37;;;4.87;;
71464;SDS011;59274;49.874;9.154;2024-02-16T09:20:18;10.35;;;4.70;;
71464;SDS011;59274;49.874;9.154;2024-02-16T09:22:47;12.23;;;5.55;;
71464;SDS011;59274;49.874;9.154;2024-02-16T09:25:14;11.15;;;5.05;;
71464;SDS011;59274;49.874;9.154;2024-02-16T09:27:40;8.97;;;3.80;;
71464;SDS011;59274;49.874;9.154;2024-02-16T09:30:09;9.98;;;4.15;;
71464;SDS011;59274;49.874;9.154;2024-02-16T09:32:38;9.40;;;4.38;;
71464;SDS011;59274;49.874;9.154;2024-02-16T09:35:05;7.35;;;3.38;;
71464;SDS011;59274;49.874;9.154;2024-02-16T09:37:30;9.67;;;4.10;;
71464;SDS011;59274;49.874;9.154;2024-02-16T09:39:56;7.40;;;3.28;;
71464;SDS011;59274;49.874;9.154;2024-02-16T09:42:23;8.70;;;3.40;;
71464;SDS011;59274;49.874;9.154;2024-02-16T09:44:51;7.90;;;3.35;;
71464;SDS011;59274;49.874;9.154;2024-02-16T09:47:19;7.00;;;3.60;;
71464;SDS011;59274;49.874;9.154;2024-02-16T09:49:47;7.97;;;3.20;;
71464;SDS011;59274;49.874;9.154;2024-02-16T09:52:13;7.05;;;3.42;;
71464;SDS011;59274;49.874;9.154;2024-02-16T09:54:39;7.97;;;3.70;;
71464;SDS011;59274;49.874;9.154;2024-02-16T09:57:05;9.45;;;3.92;;
71464;SDS011;59274;49.874;9.154;2024-02-16T09:59:30;7.90;;;3.45;;
71464;SDS011;59274;49.874;9.154;2024-02-16T10:02:03;8.33;;;3.77;;
71464;SDS011;59274;49.874;9.154;2024-02-16T10:04:29;10.32;;;3.83;;
71464;SDS011;59274;49.874;9.154;2024-02-16T10:06:55;8.77;;;3.70;;
71464;SDS011;59274;49.874;9.154;2024-02-16T10:09:24;9.90;;;4.67;;
71464;SDS011;59274;49.874;9.154;2024-02-16T10:11:50;12.32;;;4.90;;
71464;SDS011;59274;49.874;9.154;2024-02-16T10:14:16;9.40;;;4.15;;
71464;SDS011;59274;49.874;9.154;2024-02-16T10:16:44;10.63;;;5.22;;
71464;SDS011;59274;49.874;9.154;2024-02-16T10:19:09;11.20;;;4.72;;
71464;SDS011;59274;49.874;9.154;2024-02-16T10:21:35;7.33;;;3.93;;
71464;SDS011;59274;49.874;9.154;2024-02-16T10:26:33;9.52;;;4.70;;
71464;SDS011;59274;49.874;9.154;2024-02-16T10:29:03;10.50;;;5.57;;
71464;SDS011;59274;49.874;9.154;2024-02-16T10:31:30;10.13;;;4.78;;
71464;SDS011;59274;49.874;9.154;2024-02-16T10:33:58;10.65;;;4.88;;
71464;SDS011;59274;49.874;9.154;2024-02-16T10:36:27;10.93;;;4.65;;
71464;SDS011;59274;49.874;9.154;2024-02-16T10:38:53;9.65;;;4.60;;
71464;SDS011;59274;49.874;9.154;2024-02-16T10:41:22;8.65;;;4.47;;
71464;SDS011;59274;49.874;9.154;2024-02-16T10:43:51;11.93;;;5.70;;
71464;SDS011;59274;49.874;9.154;2024-02-16T10:46:19;8.65;;;4.15;;
71464;SDS011;59274;49.874;9.154;2024-02-16T10:48:45;7.75;;;3.67;;
71464;SDS011;59274;49.874;9.154;2024-02-16T10:51:10;7.90;;;4.33;;
71464;SDS011;59274;49.874;9.154;2024-02-16T10:53:37;7.68;;;3.55;;
71464;SDS011;59274;49.874;9.154;2024-02-16T10:56:03;8.10;;;3.67;;
71464;SDS011;59274;49.874;9.154;2024-02-16T10:58:32;8.90;;;3.40;;
71464;SDS011;59274;49.874;9.154;2024-02-16T11:01:07;7.45;;;3.42;;
71464;SDS011;59274;49.874;9.154;2024-02-16T11:03:33;9.52;;;4.63;;
71464;SDS011;59274;49.874;9.154;2024-02-16T11:05:59;11.80;;;5.37;;
71464;SDS011;59274;49.874;9.154;2024-02-16T11:08:24;11.43;;;5.03;;
71464;SDS011;59274;49.874;9.154;2024-02-16T11:10:54;11.67;;;5.77;;
71464;SDS011;59274;49.874;9.154;2024-02-16T11:13:26;11.55;;;6.00;;
71464;SDS011;59274;49.874;9.154;2024-02-16T11:15:59;9.77;;;5.65;;
71464;SDS011;59274;49.874;9.154;2024-02-16T11:18:30;11.75;;;5.57;;
71464;SDS011;59274;49.874;9.154;2024-02-16T11:20:59;12.00;;;5.57;;
71464;SDS011;59274;49.874;9.154;2024-02-16T11:23:29;14.00;;;5.17;;
71464;SDS011;59274;49.874;9.154;2024-02-16T11:26:02;11.80;;;4.63;;
71464;SDS011;59274;49.874;9.154;2024-02-16T11:28:32;10.93;;;4.57;;
71464;SDS011;59274;49.874;9.154;2024-02-16T11:30:58;12.05;;;4.57;;
71464;SDS011;59274;49.874;9.154;2024-02-16T11:33:25;12.00;;;5.00;;
71464;SDS011;59274;49.874;9.154;2024-02-16T11:35:56;9.87;;;4.17;;
71464;SDS011;59274;49.874;9.154;2024-02-16T11:38:22;10.25;;;4.47;;
71464;SDS011;59274;49.874;9.154;2024-02-16T11:43:21;8.57;;;3.78;;
71464;SDS011;59274;49.874;9.154;2024-02-16T11:45:47;8.52;;;3.50;;
71464;SDS011;59274;49.874;9.154;2024-02-16T11:48:13;6.70;;;3.17;;
71464;SDS011;59274;49.874;9.154;2024-02-16T11:50:47;9.55;;;3.05;;
71464;SDS011;59274;49.874;9.154;2024-02-16T11:53:17;7.17;;;3.40;;
71464;SDS011;59274;49.874;9.154;2024-02-16T11:55:47;9.23;;;3.10;;
71464;SDS011;59274;49.874;9.154;2024-02-16T11:58:14;11.80;;;4.35;;
71464;SDS011;59274;49.874;9.154;2024-02-16T12:00:47;6.35;;;2.75;;
71464;SDS011;59274;49.874;9.154;2024-02-16T12:03:20;8.13;;;2.80;;
71464;SDS011;59274;49.874;9.154;2024-02-16T12:05:51;6.73;;;2.90;;
71464;SDS011;59274;49.874;9.154;2024-02-16T12:08:17;5.97;;;2.80;;
71464;SDS011;59274;49.874;9.154;2024-02-16T12:10:43;6.75;;;3.15;;
71464;SDS011;59274;49.874;9.154;2024-02-16T12:13:09;5.60;;;2.70;;
71464;SDS011;59274;49.874;9.154;2024-02-16T12:15:37;6.70;;;2.90;;
71464;SDS011;59274;49.874;9.154;2024-02-16T12:18:03;6.55;;;2.72;;
71464;SDS011;59274;49.874;9.154;2024-02-16T12:20:29;6.03;;;2.90;;
71464;SDS011;59274;49.874;9.154;2024-02-16T12:22:56;6.43;;;2.90;;
71464;SDS011;59274;49.874;9.154;2024-02-16T12:25:24;5.88;;;2.60;;
71464;SDS011;59274;49.874;9.154;2024-02-16T12:27:50;5.85;;;2.70;;
71464;SDS011;59274;49.874;9.154;2024-02-16T12:30:15;6.97;;;2.60;;
71464;SDS011;59274;49.874;9.154;2024-02-16T12:32:41;7.37;;;2.73;;
71464;SDS011;59274;49.874;9.154;2024-02-16T12:35:07;7.27;;;2.77;;
71464;SDS011;59274;49.874;9.154;2024-02-16T12:37:32;6.65;;;2.60;;
71464;SDS011;59274;49.874;9.154;2024-02-16T12:40:00;6.20;;;2.30;;
71464;SDS011;59274;49.874;9.154;2024-02-16T12:42:26;5.60;;;2.50;;
71464;SDS011;59274;49.874;9.154;2024-02-16T12:44:52;5.77;;;2.30;;
71464;SDS011;59274;49.874;9.154;2024-02-16T12:47:17;8.50;;;2.70;;
71464;SDS011;59274;49.874;9.154;2024-02-16T12:49:43;7.30;;;2.70;;
71464;SDS011;59274;49.874;9.154;2024-02-16T12:52:08;7.63;;;2.70;;
71464;SDS011;59274;49.874;9.154;2024-02-16T12:54:33;5.83;;;2.63;;
71464;SDS011;59274;49.874;9.154;2024-02-16T12:56:59;7.75;;;2.75;;
71464;SDS011;59274;49.874;9.154;2024-02-16T12:59:25;6.13;;;2.77;;
71464;SDS011;59274;49.874;9.154;2024-02-16T13:01:51;7.20;;;2.58;;
71464;SDS011;59274;49.874;9.154;2024-02-16T13:04:17;8.27;;;2.80;;
71464;SDS011;59274;49.874;9.154;2024-02-16T13:06:46;7.85;;;3.00;;
71464;SDS011;59274;49.874;9.154;2024-02-16T13:09:12;5.78;;;2.47;;
71464;SDS011;59274;49.874;9.154;2024-02-16T13:11:38;6.13;;;2.50;;
71464;SDS011;59274;49.874;9.154;2024-02-16T13:14:05;6.68;;;2.45;;
71464;SDS011;59274;49.874;9.154;2024-02-16T13:16:31;8.23;;;2.65;;
71464;SDS011;59274;49.874;9.154;2024-02-16T13:18:57;5.73;;;2.67;;
71464;SDS011;59274;49.874;9.154;2024-02-16T13:21:22;8.57;;;2.80;;
71464;SDS011;59274;49.874;9.154;2024-02-16T13:23:48;6.80;;;2.85;;
71464;SDS011;59274;49.874;9.154;2024-02-16T13:26:13;8.63;;;2.70;;
71464;SDS011;59274;49.874;9.154;2024-02-16T13:28:38;8.07;;;3.13;;
71464;SDS011;59274;49.874;9.154;2024-02-16T13:31:04;5.90;;;2.57;;
71464;SDS011;59274;49.874;9.154;2024-02-16T13:33:29;8.98;;;2.63;;
71464;SDS011;59274;49.874;9.154;2024-02-16T13:35:55;9.27;;;3.10;;
71464;SDS011;59274;49.874;9.154;2024-02-16T13:38:20;8.50;;;2.70;;
71464;SDS011;59274;49.874;9.154;2024-02-16T13:40:46;7.40;;;2.90;;
71464;SDS011;59274;49.874;9.154;2024-02-16T13:43:11;9.32;;;2.70;;
71464;SDS011;59274;49.874;9.154;2024-02-16T13:45:49;8.67;;;2.70;;
71464;SDS011;59274;49.874;9.154;2024-02-16T13:48:16;8.13;;;3.10;;
71464;SDS011;59274;49.874;9.154;2024-02-16T13:50:48;6.93;;;2.30;;
71464;SDS011;59274;49.874;9.154;2024-02-16T13:53:15;9.43;;;3.10;;
71464;SDS011;59274;49.874;9.154;2024-02-16T13:55:42;8.77;;;2.90;;
71464;SDS011;59274;49.874;9.154;2024-02-16T13:58:09;8.15;;;2.45;;
71464;SDS011;59274;49.874;9.154;2024-02-16T14:00:37;7.80;;;2.47;;
71464;SDS011;59274;49.874;9.154;2024-02-16T14:03:04;8.70;;;2.30;;
71464;SDS011;59274;49.874;9.154;2024-02-16T14:05:30;10.60;;;2.40;;
71464;SDS011;59274;49.874;9.154;2024-02-16T14:07:56;8.23;;;2.40;;
71464;SDS011;59274;49.874;9.154;2024-02-16T14:10:22;8.18;;;2.88;;
71464;SDS011;59274;49.874;9.154;2024-02-16T14:12:47;7.88;;;2.80;;
71464;SDS011;59274;49.874;9.154;2024-02-16T14:15:13;8.43;;;2.73;;
71464;SDS011;59274;49.874;9.154;2024-02-16T14:17:41;7.30;;;2.65;;
71464;SDS011;59274;49.874;9.154;2024-02-16T14:20:07;8.10;;;2.25;;
71464;SDS011;59274;49.874;9.154;2024-02-16T14:22:33;5.63;;;2.72;;
71464;SDS011;59274;49.874;9.154;2024-02-16T14:24:59;7.85;;;2.65;;
71464;SDS011;59274;49.874;9.154;2024-02-16T14:27:24;8.25;;;2.70;;
71464;SDS011;59274;49.874;9.154;2024-02-16T14:29:50;7.53;;;2.87;;
71464;SDS011;59274;49.874;9.154;2024-02-16T14:32:16;11.55;;;3.60;;
71464;SDS011;59274;49.874;9.154;2024-02-16T14:34:42;6.47;;;2.70;;
71464;SDS011;59274;49.874;9.154;2024-02-16T14:37:08;10.27;;;2.97;;
71464;SDS011;59274;49.874;9.154;2024-02-16T14:39:34;7.80;;;3.10;;
71464;SDS011;59274;49.874;9.154;2024-02-16T14:42:00;6.40;;;2.63;;